createdAt,value
2019-04-21T00:01:05.060Z,9.19
2019-04-21T00:04:21.162Z,9.23
2019-04-21T00:07:33.198Z,9.03
2019-04-21T00:10:40.085Z,8.98
2019-04-21T00:13:43.895Z,8.99
2019-04-21T00:16:46.643Z,8.90
2019-04-21T00:19:47.669Z,8.74
2019-04-21T00:23:13.141Z,8.62
2019-04-21T00:26:15.146Z,8.57
2019-04-21T00:29:30.357Z,8.51
2019-04-21T00:32:28.112Z,8.40
2019-04-21T00:35:27.491Z,8.56
2019-04-21T00:39:02.117Z,8.50
2019-04-21T00:41:59.626Z,8.53
2019-04-21T00:45:02.060Z,8.49
2019-04-21T00:48:20.657Z,8.40
2019-04-21T00:51:36.058Z,8.50
2019-04-21T00:54:35.387Z,8.18
2019-04-21T00:57:49.880Z,8.11
2019-04-21T01:00:47.605Z,8.04
2019-04-21T01:03:52.969Z,8.12
2019-04-21T01:07:05.537Z,8.01
2019-04-21T01:09:58.341Z,7.99
2019-04-21T01:13:18.695Z,7.93
2019-04-21T01:16:20.648Z,7.81
2019-04-21T01:19:29.827Z,7.82
2019-04-21T01:22:12.496Z,7.70
2019-04-21T01:25:27.409Z,7.74
2019-04-21T01:28:40.015Z,7.69
2019-04-21T01:31:48.488Z,7.69
2019-04-21T01:35:00.727Z,7.59
2019-04-21T01:38:07.149Z,7.43
2019-04-21T01:41:15.541Z,7.30
2019-04-21T01:44:25.060Z,7.25
2019-04-21T01:47:20.151Z,7.33
2019-04-21T01:50:31.262Z,7.24
2019-04-21T01:53:56.506Z,7.20
2019-04-21T01:57:15.640Z,7.27
2019-04-21T02:00:13.668Z,7.20
2019-04-21T02:03:46.999Z,7.06
2019-04-21T02:06:39.118Z,7.02
2019-04-21T02:09:44.364Z,7.00
2019-04-21T02:12:52.282Z,6.85
2019-04-21T02:16:02.131Z,6.83
2019-04-21T02:19:00.073Z,6.68
2019-04-21T02:22:10.806Z,6.69
2019-04-21T02:25:23.092Z,6.70
2019-04-21T02:28:36.745Z,6.64
2019-04-21T02:32:01.628Z,6.86
2019-04-21T02:35:12.408Z,6.71
2019-04-21T02:38:02.042Z,6.57
2019-04-21T02:41:31.183Z,6.61
2019-04-21T02:47:27.563Z,6.50
2019-04-21T02:50:31.574Z,6.40
2019-04-21T02:56:50.238Z,6.16
2019-04-21T03:03:13.539Z,6.13
2019-04-21T03:06:40.209Z,6.11
2019-04-21T03:09:33.574Z,6.04
2019-04-21T03:12:38.118Z,5.96
2019-04-21T03:16:02.355Z,5.84
2019-04-21T03:18:56.755Z,5.90
2019-04-21T03:22:05.032Z,5.81
2019-04-21T03:25:25.373Z,5.87
2019-04-21T03:28:22.616Z,5.75
2019-04-21T03:40:42.496Z,5.60
2019-04-21T03:43:54.722Z,5.44
2019-04-21T03:47:02.188Z,5.51
2019-04-21T03:50:29.672Z,5.43
2019-04-21T03:53:09.299Z,5.28
2019-04-21T03:56:45.287Z,5.21
2019-04-21T03:59:25.033Z,5.22
2019-04-21T04:02:54.621Z,5.22
2019-04-21T04:06:22.612Z,5.26
2019-04-21T04:12:48.724Z,5.19
2019-04-21T04:15:51.449Z,5.23
2019-04-21T04:18:55.759Z,5.29
2019-04-21T04:22:09.112Z,5.33
2019-04-21T04:25:15.749Z,5.29
2019-04-21T04:28:18.952Z,5.21
2019-04-21T04:34:29.315Z,5.24
2019-04-21T04:37:36.689Z,5.29
2019-04-21T04:41:02.875Z,5.33
2019-04-21T04:44:07.003Z,5.48
2019-04-21T04:47:12.265Z,5.95
2019-04-21T04:50:15.668Z,6.46
2019-04-21T04:53:32.817Z,7.02
2019-04-21T04:59:42.501Z,7.76
2019-04-21T05:06:37.177Z,8.67
2019-04-21T05:09:28.650Z,8.78
2019-04-21T05:12:29.474Z,9.15
2019-04-21T05:15:37.876Z,9.12
2019-04-21T05:18:54.332Z,9.56
2019-04-21T05:21:48.050Z,9.76
2019-04-21T05:24:50.720Z,10.44
2019-04-21T05:27:55.368Z,10.41
2019-04-21T05:31:25.627Z,10.47
2019-04-21T05:34:30.532Z,10.44
2019-04-21T05:37:58.596Z,10.75
2019-04-21T05:40:52.259Z,11.23
2019-04-21T05:44:13.219Z,11.19
2019-04-21T05:47:37.944Z,11.28
2019-04-21T05:50:16.612Z,12.94
2019-04-21T05:56:36.536Z,12.80
2019-04-21T05:59:47.963Z,13.25
2019-04-21T06:03:00.089Z,12.87
2019-04-21T06:06:00.742Z,12.63
2019-04-21T06:09:11.106Z,12.73
2019-04-21T06:12:16.683Z,12.50
2019-04-21T06:15:19.743Z,12.55
2019-04-21T06:18:36.426Z,12.18
2019-04-21T06:21:33.287Z,11.73
2019-04-21T06:25:06.852Z,11.47
2019-04-21T06:27:52.670Z,11.71
2019-04-21T06:31:05.608Z,12.25
2019-04-21T06:34:06.711Z,12.31
2019-04-21T06:37:34.865Z,12.68
2019-04-21T06:43:51.051Z,12.69
2019-04-21T06:46:35.221Z,13.05
2019-04-21T06:49:41.095Z,12.78
2019-04-21T06:52:53.891Z,12.55
2019-04-21T06:55:57.536Z,12.68
2019-04-21T06:59:01.407Z,13.25
2019-04-21T07:02:31.856Z,13.86
2019-04-21T07:05:17.104Z,14.22
2019-04-21T07:11:26.716Z,14.58
2019-04-21T07:14:33.351Z,14.06
2019-04-21T07:17:43.242Z,14.18
2019-04-21T07:20:53.530Z,14.62
2019-04-21T07:23:59.136Z,15.35
2019-04-21T07:27:08.949Z,15.39
2019-04-21T07:30:12.954Z,15.52
2019-04-21T07:33:41.511Z,15.38
2019-04-21T07:36:31.861Z,15.45
2019-04-21T07:39:29.895Z,16.31
2019-04-21T07:42:32.858Z,16.28
2019-04-21T07:45:42.680Z,16.78
2019-04-21T07:48:57.954Z,16.96
2019-04-21T07:52:22.132Z,17.33
2019-04-21T07:58:38.675Z,17.48
2019-04-21T08:01:44.138Z,18.18
2019-04-21T08:07:57.184Z,17.74
2019-04-21T08:11:01.723Z,17.75
2019-04-21T08:14:16.995Z,17.96
2019-04-21T08:17:16.568Z,18.59
2019-04-21T08:20:24.395Z,18.82
2019-04-21T08:23:31.460Z,19.23
2019-04-21T08:26:45.019Z,18.87
2019-04-21T08:29:54.874Z,19.36
2019-04-21T08:33:00.516Z,18.85
2019-04-21T08:39:11.062Z,19.38
2019-04-21T08:42:23.922Z,18.96
2019-04-21T08:48:33.896Z,19.48
2019-04-21T08:51:43.631Z,19.91
2019-04-21T08:54:51.676Z,20.32
2019-04-21T09:01:30.470Z,20.24
2019-04-21T09:04:33.478Z,20.51
2019-04-21T09:07:47.250Z,20.43
2019-04-21T09:10:56.088Z,20.74
2019-04-21T09:13:57.529Z,20.75
2019-04-21T09:17:05.189Z,21.04
2019-04-21T09:20:22.628Z,21.27
2019-04-21T09:23:21.044Z,21.54
2019-04-21T09:26:27.096Z,21.63
2019-04-21T09:29:25.678Z,21.41
2019-04-21T09:32:23.886Z,21.76
2019-04-21T09:35:27.046Z,21.93
2019-04-21T09:38:37.110Z,22.19
2019-04-21T09:41:40.961Z,22.50
2019-04-21T09:44:51.865Z,22.34
2019-04-21T09:48:00.869Z,22.20
2019-04-21T09:51:01.945Z,21.91
2019-04-21T09:54:12.068Z,22.34
2019-04-21T09:57:23.987Z,22.42
2019-04-21T10:00:25.347Z,22.41
2019-04-21T10:03:39.625Z,22.61
2019-04-21T10:06:35.469Z,22.74
2019-04-21T10:09:40.594Z,21.96
2019-04-21T10:12:45.792Z,22.12
2019-04-21T10:16:05.145Z,22.24
2019-04-21T10:19:11.178Z,22.81
2019-04-21T10:22:18.912Z,23.16
2019-04-21T10:25:25.040Z,23.28
2019-04-21T10:28:31.425Z,23.19
2019-04-21T10:31:36.820Z,23.29
2019-04-21T10:34:43.202Z,23.61
2019-04-21T10:38:01.258Z,23.44
2019-04-21T10:40:55.436Z,23.30
2019-04-21T10:44:01.036Z,23.25
2019-04-21T10:47:06.865Z,23.45
2019-04-21T10:50:13.318Z,23.55
2019-04-21T10:53:23.030Z,23.33
2019-04-21T10:56:34.381Z,23.75
2019-04-21T10:59:35.366Z,23.58
2019-04-21T11:02:46.492Z,23.62
2019-04-21T11:05:52.633Z,23.44
2019-04-21T11:08:59.936Z,23.84
2019-04-21T11:12:08.292Z,23.32
2019-04-21T11:15:14.829Z,23.95
2019-04-21T11:18:21.939Z,23.96
2019-04-21T11:21:27.254Z,23.97
2019-04-21T11:24:33.305Z,24.03
2019-04-21T11:27:38.562Z,24.14
2019-04-21T11:30:44.512Z,23.40
2019-04-21T11:33:51.181Z,23.77
2019-04-21T11:36:56.463Z,24.00
2019-04-21T11:40:07.171Z,23.64
2019-04-21T11:43:09.583Z,23.76
2019-04-21T11:46:16.134Z,23.77
2019-04-21T11:49:22.346Z,23.62
2019-04-21T11:52:27.550Z,24.08
2019-04-21T11:55:37.101Z,23.70
2019-04-21T11:58:41.541Z,23.33
2019-04-21T12:01:47.619Z,24.06
2019-04-21T12:04:53.782Z,24.46
2019-04-21T12:08:00.172Z,24.22
2019-04-21T12:11:05.578Z,23.93
2019-04-21T12:14:12.043Z,24.04
2019-04-21T12:17:18.311Z,24.31
2019-04-21T12:20:24.429Z,24.31
2019-04-21T12:23:30.189Z,24.63
2019-04-21T12:26:35.998Z,24.00
2019-04-21T12:29:41.859Z,23.47
2019-04-21T12:32:55.964Z,23.91
2019-04-21T12:36:01.896Z,24.03
2019-04-21T12:39:10.862Z,23.63
2019-04-21T12:42:16.588Z,23.87
2019-04-21T12:45:22.137Z,24.08
2019-04-21T12:48:28.211Z,24.20
2019-04-21T12:51:35.407Z,24.00
2019-04-21T12:54:41.805Z,24.20
2019-04-21T12:57:47.666Z,24.73
2019-04-21T13:00:52.978Z,24.22
2019-04-21T13:03:58.207Z,24.24
2019-04-21T13:07:05.569Z,24.12
2019-04-21T13:10:12.601Z,24.58
2019-04-21T13:13:17.893Z,24.71
2019-04-21T13:16:23.380Z,24.55
2019-04-21T13:19:29.387Z,24.32
2019-04-21T13:22:36.033Z,24.95
2019-04-21T13:25:41.787Z,24.92
2019-04-21T13:28:48.183Z,24.54
2019-04-21T13:31:54.282Z,24.58
2019-04-21T13:35:01.112Z,24.40
2019-04-21T13:38:18.825Z,24.42
2019-04-21T13:41:32.611Z,24.62
2019-04-21T13:44:26.749Z,24.40
2019-04-21T13:47:34.535Z,24.48
2019-04-21T13:50:41.498Z,24.83
2019-04-21T13:53:46.774Z,24.95
2019-04-21T13:56:52.398Z,24.89
2019-04-21T13:59:59.143Z,24.57
2019-04-21T14:03:05.098Z,24.61
2019-04-21T14:06:10.284Z,25.01
2019-04-21T14:09:40.294Z,24.85
2019-04-21T14:12:36.409Z,24.90
2019-04-21T14:15:42.091Z,24.84
2019-04-21T14:18:49.595Z,24.61
2019-04-21T14:21:55.201Z,24.38
2019-04-21T14:25:01.807Z,24.54
2019-04-21T14:28:08.106Z,24.53
2019-04-21T14:31:14.459Z,24.91
2019-04-21T14:34:20.094Z,25.20
2019-04-21T14:37:26.476Z,24.89
2019-04-21T14:40:35.029Z,24.69
2019-04-21T14:43:39.258Z,24.50
2019-04-21T14:47:06.965Z,24.67
2019-04-21T14:50:32.440Z,25.06
2019-04-21T14:53:48.047Z,24.53
2019-04-21T14:56:53.491Z,24.73
2019-04-21T15:00:00.722Z,24.44
2019-04-21T15:03:07.536Z,24.59
2019-04-21T15:06:13.544Z,24.43
2019-04-21T15:09:18.946Z,24.84
2019-04-21T15:12:23.995Z,24.89
2019-04-21T15:15:29.946Z,24.57
2019-04-21T15:18:36.831Z,24.51
2019-04-21T15:21:42.520Z,24.76
2019-04-21T15:24:48.155Z,24.45
2019-04-21T15:27:54.882Z,24.63
2019-04-21T15:31:00.736Z,24.76
2019-04-21T15:34:05.897Z,24.67
2019-04-21T15:37:11.022Z,24.89
2019-04-21T15:40:27.258Z,24.64
2019-04-21T15:43:24.513Z,24.88
2019-04-21T15:46:34.727Z,24.83
2019-04-21T15:50:04.732Z,24.83
2019-04-21T15:53:05.622Z,24.56
2019-04-21T15:56:35.667Z,24.64
2019-04-21T15:59:50.739Z,24.56
2019-04-21T16:02:58.355Z,24.37
2019-04-21T16:06:03.797Z,24.36
2019-04-21T16:09:14.921Z,24.47
2019-04-21T16:12:17.823Z,24.26
2019-04-21T16:15:23.091Z,24.04
2019-04-21T16:18:28.242Z,24.06
2019-04-21T16:21:38.345Z,24.07
2019-04-21T16:24:41.902Z,24.02
2019-04-21T16:27:47.695Z,23.76
2019-04-21T16:30:54.323Z,23.67
2019-04-21T16:34:00.925Z,23.85
2019-04-21T16:37:07.677Z,23.60
2019-04-21T16:40:14.635Z,23.54
2019-04-21T16:43:20.052Z,23.57
2019-04-21T16:46:25.387Z,23.59
2019-04-21T16:49:31.781Z,23.48
2019-04-21T16:52:52.232Z,23.08
2019-04-21T16:56:11.485Z,23.17
2019-04-21T16:59:20.980Z,23.02
2019-04-21T17:02:26.190Z,22.88
2019-04-21T17:05:32.235Z,22.71
2019-04-21T17:08:38.859Z,22.64
2019-04-21T17:11:46.999Z,22.51
2019-04-21T17:15:09.428Z,22.34
2019-04-21T17:18:15.073Z,21.87
2019-04-21T17:21:07.450Z,21.48
2019-04-21T17:24:14.596Z,21.10
2019-04-21T17:27:20.778Z,20.64
2019-04-21T17:30:26.490Z,20.34
2019-04-21T17:33:33.751Z,20.31
2019-04-21T17:36:39.275Z,20.07
2019-04-21T17:39:44.974Z,19.72
2019-04-21T17:42:59.322Z,19.37
2019-04-21T17:45:57.515Z,19.20
2019-04-21T17:49:03.210Z,19.20
2019-04-21T17:52:21.617Z,19.16
2019-04-21T17:55:31.296Z,19.16
2019-04-21T17:58:58.189Z,19.17
2019-04-21T18:02:02.118Z,19.11
2019-04-21T18:05:16.664Z,18.70
2019-04-21T18:08:21.614Z,18.41
2019-04-21T18:11:12.644Z,18.24
2019-04-21T18:14:11.421Z,18.10
2019-04-21T18:17:16.563Z,18.01
2019-04-21T18:20:28.067Z,17.71
2019-04-21T18:23:54.233Z,17.28
2019-04-21T18:26:56.562Z,17.05
2019-04-21T18:30:02.501Z,16.82
2019-04-21T18:33:15.602Z,16.48
2019-04-21T18:36:34.909Z,16.15
2019-04-21T18:39:57.491Z,15.97
2019-04-21T18:43:32.646Z,16.04
2019-04-21T18:46:40.026Z,15.76
2019-04-21T18:49:35.233Z,15.65
2019-04-21T18:53:03.250Z,15.52
2019-04-21T18:56:00.329Z,15.25
2019-04-21T18:59:00.626Z,15.10
2019-04-21T19:02:10.206Z,14.98
2019-04-21T19:05:16.033Z,14.68
2019-04-21T19:08:38.718Z,14.65
2019-04-21T19:11:42.531Z,14.70
2019-04-21T19:14:54.903Z,14.40
2019-04-21T19:18:28.107Z,14.26
2019-04-21T19:21:00.258Z,14.23
2019-04-21T19:24:25.345Z,14.00
2019-04-21T19:27:23.734Z,13.95
2019-04-21T19:30:36.839Z,13.72
2019-04-21T19:33:29.706Z,13.66
2019-04-21T19:36:23.670Z,13.67
2019-04-21T19:39:43.137Z,13.55
2019-04-21T19:42:46.452Z,13.44
2019-04-21T19:45:59.392Z,13.28
2019-04-21T19:49:17.253Z,13.05
2019-04-21T19:52:05.595Z,12.95
2019-04-21T19:55:04.491Z,12.86
2019-04-21T19:58:10.748Z,12.83
2019-04-21T20:01:17.375Z,12.76
2019-04-21T20:04:29.806Z,12.64
2019-04-21T20:07:44.509Z,12.57
2019-04-21T20:10:58.002Z,12.42
2019-04-21T20:14:32.555Z,12.27
2019-04-21T20:17:08.055Z,12.30
2019-04-21T20:19:58.231Z,12.34
2019-04-21T20:23:03.513Z,12.20
2019-04-21T20:26:10.425Z,12.11
2019-04-21T20:29:34.419Z,12.01
2019-04-21T20:32:42.706Z,11.90
2019-04-21T20:35:51.966Z,11.88
2019-04-21T20:38:47.242Z,11.78
2019-04-21T20:41:57.569Z,11.64
2019-04-21T20:45:23.556Z,11.50
2019-04-21T20:48:07.276Z,11.62
2019-04-21T20:51:23.747Z,11.61
2019-04-21T20:54:31.719Z,11.37
2019-04-21T20:57:30.076Z,11.21
2019-04-21T21:00:54.523Z,11.06
2019-04-21T21:03:50.340Z,10.97
2019-04-21T21:07:01.596Z,10.94
2019-04-21T21:10:08.744Z,10.99
2019-04-21T21:13:20.630Z,10.97
2019-04-21T21:16:23.250Z,10.78
2019-04-21T21:19:29.718Z,10.92
2019-04-21T21:22:29.641Z,10.75
2019-04-21T21:25:46.218Z,10.57
2019-04-21T21:28:39.030Z,10.72
2019-04-21T21:31:59.552Z,10.98
2019-04-21T21:34:56.642Z,10.62
2019-04-21T21:38:08.629Z,10.76
2019-04-21T21:41:09.617Z,10.70
2019-04-21T21:44:09.187Z,10.64
2019-04-21T21:47:23.999Z,10.56
2019-04-21T21:50:25.099Z,10.48
2019-04-21T21:53:28.455Z,10.12
2019-04-21T21:56:30.604Z,10.06
2019-04-21T21:59:38.168Z,10.11
2019-04-21T22:02:47.658Z,10.09
2019-04-21T22:05:58.243Z,10.02
2019-04-21T22:08:56.623Z,9.68
2019-04-21T22:12:06.271Z,9.69
2019-04-21T22:15:16.933Z,9.53
2019-04-21T22:18:35.037Z,9.67
2019-04-21T22:21:41.477Z,9.71
2019-04-21T22:24:46.951Z,9.63
2019-04-21T22:27:37.063Z,9.47
2019-04-21T22:30:46.452Z,9.31
2019-04-21T22:33:53.854Z,9.14
2019-04-21T22:37:16.669Z,9.02
2019-04-21T22:40:19.028Z,9.01
2019-04-21T22:43:21.707Z,8.83
2019-04-21T22:46:18.536Z,8.85
2019-04-21T22:49:23.923Z,8.79
2019-04-21T22:52:30.500Z,8.85
2019-04-21T22:55:37.207Z,8.75
2019-04-21T22:58:44.443Z,8.58
2019-04-21T23:01:50.819Z,8.70
2019-04-21T23:04:58.633Z,8.73
2019-04-21T23:08:06.825Z,8.51
2019-04-21T23:11:12.886Z,8.46
2019-04-21T23:14:19.018Z,8.34
2019-04-21T23:17:50.738Z,8.45
2019-04-21T23:20:53.675Z,8.35
2019-04-21T23:24:02.886Z,8.25
2019-04-21T23:27:05.165Z,8.21
2019-04-21T23:30:19.886Z,8.11
2019-04-21T23:33:07.104Z,8.10
2019-04-21T23:36:17.215Z,8.05
2019-04-21T23:39:23.332Z,8.04
2019-04-21T23:42:31.759Z,8.04
2019-04-21T23:45:37.749Z,7.84
2019-04-21T23:48:55.943Z,7.76
2019-04-21T23:51:52.897Z,7.71
2019-04-21T23:54:53.530Z,7.65
2019-04-21T23:58:07.069Z,7.68
